sensor_id;sensor_type;location;lat;lon;timestamp;P1;durP1;ratioP1;P2;durP2;ratioP2
52956;SDS011;38819;42.692;23.342;2023-06-22T00:00:50;11.60;;;8.35;;
52956;SDS011;38819;42.692;23.342;2023-06-22T00:03:17;12.63;;;8.98;;
52956;SDS011;38819;42.692;23.342;2023-06-22T00:05:43;9.90;;;8.88;;
52956;SDS011;38819;42.692;23.342;2023-06-22T00:08:09;13.82;;;8.73;;
52956;SDS011;38819;42.692;23.342;2023-06-22T00:10:34;13.07;;;8.95;;
52956;SDS011;38819;42.692;23.342;2023-06-22T00:13:00;10.55;;;8.45;;
52956;SDS011;38819;42.692;23.342;2023-06-22T00:15:26;10.90;;;8.68;;
52956;SDS011;38819;42.692;23.342;2023-06-22T00:17:51;9.15;;;7.97;;
52956;SDS011;38819;42.692;23.342;2023-06-22T00:20:17;13.57;;;8.82;;
52956;SDS011;38819;42.692;23.342;2023-06-22T00:22:43;11.82;;;8.60;;
52956;SDS011;38819;42.692;23.342;2023-06-22T00:25:09;11.23;;;8.77;;
52956;SDS011;38819;42.692;23.342;2023-06-22T00:27:35;10.85;;;9.38;;
52956;SDS011;38819;42.692;23.342;2023-06-22T00:30:01;9.63;;;8.63;;
52956;SDS011;38819;42.692;23.342;2023-06-22T00:32:27;10.82;;;8.63;;
52956;SDS011;38819;42.692;23.342;2023-06-22T00:34:52;11.57;;;9.00;;
52956;SDS011;38819;42.692;23.342;2023-06-22T00:37:18;10.30;;;8.98;;
52956;SDS011;38819;42.692;23.342;2023-06-22T00:39:43;11.43;;;8.65;;
52956;SDS011;38819;42.692;23.342;2023-06-22T00:42:08;13.35;;;9.70;;
52956;SDS011;38819;42.692;23.342;2023-06-22T00:44:37;12.27;;;9.15;;
52956;SDS011;38819;42.692;23.342;2023-06-22T00:47:03;16.13;;;9.57;;
52956;SDS011;38819;42.692;23.342;2023-06-22T00:49:28;10.68;;;9.15;;
52956;SDS011;38819;42.692;23.342;2023-06-22T00:51:54;13.48;;;9.27;;
52956;SDS011;38819;42.692;23.342;2023-06-22T00:54:22;12.07;;;9.90;;
52956;SDS011;38819;42.692;23.342;2023-06-22T00:56:58;12.60;;;8.95;;
52956;SDS011;38819;42.692;23.342;2023-06-22T00:59:24;11.55;;;9.55;;
52956;SDS011;38819;42.692;23.342;2023-06-22T01:01:51;13.60;;;10.00;;
52956;SDS011;38819;42.692;23.342;2023-06-22T01:04:17;12.63;;;9.65;;
52956;SDS011;38819;42.692;23.342;2023-06-22T01:10:07;12.38;;;9.45;;
52956;SDS011;38819;42.692;23.342;2023-06-22T01:12:42;16.10;;;10.48;;
52956;SDS011;38819;42.692;23.342;2023-06-22T01:15:28;16.88;;;11.13;;
52956;SDS011;38819;42.692;23.342;2023-06-22T01:18:03;14.60;;;11.77;;
52956;SDS011;38819;42.692;23.342;2023-06-22T01:23:03;9.93;;;8.93;;
52956;SDS011;38819;42.692;23.342;2023-06-22T01:28:50;15.70;;;11.48;;
52956;SDS011;38819;42.692;23.342;2023-06-22T01:31:20;15.65;;;12.57;;
52956;SDS011;38819;42.692;23.342;2023-06-22T01:33:50;11.25;;;10.15;;
52956;SDS011;38819;42.692;23.342;2023-06-22T01:36:18;9.77;;;8.85;;
52956;SDS011;38819;42.692;23.342;2023-06-22T01:38:46;11.48;;;10.07;;
52956;SDS011;38819;42.692;23.342;2023-06-22T01:41:12;12.02;;;10.82;;
52956;SDS011;38819;42.692;23.342;2023-06-22T01:43:38;15.43;;;11.57;;
52956;SDS011;38819;42.692;23.342;2023-06-22T01:46:04;13.00;;;10.63;;
52956;SDS011;38819;42.692;23.342;2023-06-22T01:48:30;16.77;;;10.63;;
52956;SDS011;38819;42.692;23.342;2023-06-22T01:50:57;12.07;;;10.23;;
52956;SDS011;38819;42.692;23.342;2023-06-22T01:53:22;15.52;;;10.82;;
52956;SDS011;38819;42.692;23.342;2023-06-22T01:55:48;14.57;;;10.23;;
52956;SDS011;38819;42.692;23.342;2023-06-22T01:58:14;16.85;;;12.93;;
52956;SDS011;38819;42.692;23.342;2023-06-22T02:00:40;11.73;;;9.65;;
52956;SDS011;38819;42.692;23.342;2023-06-22T02:03:13;12.40;;;11.07;;
52956;SDS011;38819;42.692;23.342;2023-06-22T02:05:49;12.13;;;10.82;;
52956;SDS011;38819;42.692;23.342;2023-06-22T02:08:21;14.25;;;11.77;;
52956;SDS011;38819;42.692;23.342;2023-06-22T02:10:49;11.13;;;9.77;;
52956;SDS011;38819;42.692;23.342;2023-06-22T02:13:17;15.52;;;9.77;;
52956;SDS011;38819;42.692;23.342;2023-06-22T02:15:43;14.80;;;10.50;;
52956;SDS011;38819;42.692;23.342;2023-06-22T02:18:10;11.57;;;9.23;;
52956;SDS011;38819;42.692;23.342;2023-06-22T02:20:38;14.40;;;9.85;;
52956;SDS011;38819;42.692;23.342;2023-06-22T02:23:05;12.57;;;9.50;;
52956;SDS011;38819;42.692;23.342;2023-06-22T02:25:31;10.35;;;9.13;;
52956;SDS011;38819;42.692;23.342;2023-06-22T02:27:57;11.63;;;9.57;;
52956;SDS011;38819;42.692;23.342;2023-06-22T02:30:23;17.08;;;9.50;;
52956;SDS011;38819;42.692;23.342;2023-06-22T02:32:48;13.52;;;9.80;;
52956;SDS011;38819;42.692;23.342;2023-06-22T02:35:14;11.60;;;9.07;;
52956;SDS011;38819;42.692;23.342;2023-06-22T02:37:40;12.65;;;9.77;;
52956;SDS011;38819;42.692;23.342;2023-06-22T02:40:09;19.13;;;10.65;;
52956;SDS011;38819;42.692;23.342;2023-06-22T02:42:35;12.80;;;9.68;;
52956;SDS011;38819;42.692;23.342;2023-06-22T02:45:02;15.00;;;9.20;;
52956;SDS011;38819;42.692;23.342;2023-06-22T02:47:27;14.52;;;9.55;;
52956;SDS011;38819;42.692;23.342;2023-06-22T02:49:53;11.85;;;9.52;;
52956;SDS011;38819;42.692;23.342;2023-06-22T02:52:18;10.52;;;9.35;;
52956;SDS011;38819;42.692;23.342;2023-06-22T02:54:44;12.18;;;9.85;;
52956;SDS011;38819;42.692;23.342;2023-06-22T02:57:12;11.57;;;8.93;;
52956;SDS011;38819;42.692;23.342;2023-06-22T02:59:41;15.30;;;8.82;;
52956;SDS011;38819;42.692;23.342;2023-06-22T03:02:07;11.65;;;9.40;;
52956;SDS011;38819;42.692;23.342;2023-06-22T03:04:34;12.77;;;9.57;;
52956;SDS011;38819;42.692;23.342;2023-06-22T03:07:00;10.52;;;9.30;;
52956;SDS011;38819;42.692;23.342;2023-06-22T03:09:26;17.40;;;8.48;;
52956;SDS011;38819;42.692;23.342;2023-06-22T03:11:55;13.35;;;9.15;;
52956;SDS011;38819;42.692;23.342;2023-06-22T03:14:21;14.30;;;8.90;;
52956;SDS011;38819;42.692;23.342;2023-06-22T03:16:46;12.23;;;8.88;;
52956;SDS011;38819;42.692;23.342;2023-06-22T03:19:12;11.43;;;9.40;;
52956;SDS011;38819;42.692;23.342;2023-06-22T03:21:38;17.13;;;9.27;;
52956;SDS011;38819;42.692;23.342;2023-06-22T03:24:05;13.63;;;9.55;;
52956;SDS011;38819;42.692;23.342;2023-06-22T03:26:31;16.50;;;9.90;;
52956;SDS011;38819;42.692;23.342;2023-06-22T03:28:57;14.88;;;8.88;;
52956;SDS011;38819;42.692;23.342;2023-06-22T03:31:22;11.63;;;8.77;;
52956;SDS011;38819;42.692;23.342;2023-06-22T03:33:48;12.63;;;8.70;;
52956;SDS011;38819;42.692;23.342;2023-06-22T03:36:14;13.88;;;9.15;;
52956;SDS011;38819;42.692;23.342;2023-06-22T03:38:44;12.43;;;9.60;;
52956;SDS011;38819;42.692;23.342;2023-06-22T03:43:36;12.98;;;9.13;;
52956;SDS011;38819;42.692;23.342;2023-06-22T03:46:01;11.27;;;9.98;;
52956;SDS011;38819;42.692;23.342;2023-06-22T03:48:27;16.52;;;9.50;;
52956;SDS011;38819;42.692;23.342;2023-06-22T03:50:53;13.07;;;9.18;;
52956;SDS011;38819;42.692;23.342;2023-06-22T03:53:18;12.60;;;9.45;;
52956;SDS011;38819;42.692;23.342;2023-06-22T03:55:50;15.45;;;9.32;;
52956;SDS011;38819;42.692;23.342;2023-06-22T03:58:18;12.77;;;10.90;;
52956;SDS011;38819;42.692;23.342;2023-06-22T04:03:14;17.73;;;10.30;;
52956;SDS011;38819;42.692;23.342;2023-06-22T04:05:41;14.43;;;10.77;;
52956;SDS011;38819;42.692;23.342;2023-06-22T04:08:07;11.35;;;10.18;;
52956;SDS011;38819;42.692;23.342;2023-06-22T04:10:33;11.95;;;10.13;;
52956;SDS011;38819;42.692;23.342;2023-06-22T04:12:59;14.95;;;9.40;;
52956;SDS011;38819;42.692;23.342;2023-06-22T04:15:25;15.25;;;10.40;;
52956;SDS011;38819;42.692;23.342;2023-06-22T04:17:50;15.38;;;10.68;;
52956;SDS011;38819;42.692;23.342;2023-06-22T04:20:16;10.13;;;8.70;;
52956;SDS011;38819;42.692;23.342;2023-06-22T04:22:41;16.45;;;9.55;;
52956;SDS011;38819;42.692;23.342;2023-06-22T04:25:07;8.43;;;7.30;;
52956;SDS011;38819;42.692;23.342;2023-06-22T04:27:33;10.73;;;8.18;;
52956;SDS011;38819;42.692;23.342;2023-06-22T04:30:05;19.92;;;7.93;;
52956;SDS011;38819;42.692;23.342;2023-06-22T04:32:32;17.13;;;12.10;;
52956;SDS011;38819;42.692;23.342;2023-06-22T04:34:57;12.80;;;10.93;;
52956;SDS011;38819;42.692;23.342;2023-06-22T04:39:50;16.92;;;8.77;;
52956;SDS011;38819;42.692;23.342;2023-06-22T04:42:16;17.25;;;10.02;;
52956;SDS011;38819;42.692;23.342;2023-06-22T04:44:41;14.88;;;10.60;;
52956;SDS011;38819;42.692;23.342;2023-06-22T04:47:07;13.43;;;10.25;;
52956;SDS011;38819;42.692;23.342;2023-06-22T04:49:36;14.82;;;11.25;;
52956;SDS011;38819;42.692;23.342;2023-06-22T04:52:11;14.30;;;11.40;;
52956;SDS011;38819;42.692;23.342;2023-06-22T04:54:38;17.35;;;10.98;;
52956;SDS011;38819;42.692;23.342;2023-06-22T04:57:06;17.38;;;11.45;;
52956;SDS011;38819;42.692;23.342;2023-06-22T04:59:35;13.43;;;10.35;;
52956;SDS011;38819;42.692;23.342;2023-06-22T05:02:04;14.13;;;10.77;;
52956;SDS011;38819;42.692;23.342;2023-06-22T05:04:30;13.07;;;10.88;;
52956;SDS011;38819;42.692;23.342;2023-06-22T05:07:00;16.95;;;11.63;;
52956;SDS011;38819;42.692;23.342;2023-06-22T05:09:26;12.93;;;10.67;;
52956;SDS011;38819;42.692;23.342;2023-06-22T05:11:52;12.25;;;10.90;;
52956;SDS011;38819;42.692;23.342;2023-06-22T05:14:17;15.60;;;11.43;;
52956;SDS011;38819;42.692;23.342;2023-06-22T05:16:44;14.15;;;11.10;;
52956;SDS011;38819;42.692;23.342;2023-06-22T05:19:10;13.50;;;11.37;;
52956;SDS011;38819;42.692;23.342;2023-06-22T05:21:36;17.13;;;10.55;;
52956;SDS011;38819;42.692;23.342;2023-06-22T05:24:01;13.32;;;10.60;;
52956;SDS011;38819;42.692;23.342;2023-06-22T05:26:31;19.83;;;11.80;;
52956;SDS011;38819;42.692;23.342;2023-06-22T05:28:59;14.90;;;10.20;;
52956;SDS011;38819;42.692;23.342;2023-06-22T05:31:26;14.02;;;11.20;;
52956;SDS011;38819;42.692;23.342;2023-06-22T05:33:52;18.35;;;12.32;;
52956;SDS011;38819;42.692;23.342;2023-06-22T05:36:19;19.23;;;12.35;;
52956;SDS011;38819;42.692;23.342;2023-06-22T05:38:45;20.67;;;12.45;;
52956;SDS011;38819;42.692;23.342;2023-06-22T05:41:11;23.20;;;12.25;;
52956;SDS011;38819;42.692;23.342;2023-06-22T05:43:36;18.35;;;13.13;;
52956;SDS011;38819;42.692;23.342;2023-06-22T05:46:02;19.95;;;13.25;;
52956;SDS011;38819;42.692;23.342;2023-06-22T05:48:28;18.20;;;12.13;;
52956;SDS011;38819;42.692;23.342;2023-06-22T05:50:54;16.20;;;10.52;;
52956;SDS011;38819;42.692;23.342;2023-06-22T05:53:20;18.95;;;10.90;;
52956;SDS011;38819;42.692;23.342;2023-06-22T05:55:45;19.42;;;10.18;;
52956;SDS011;38819;42.692;23.342;2023-06-22T05:58:11;14.02;;;10.50;;
52956;SDS011;38819;42.692;23.342;2023-06-22T06:00:38;13.82;;;10.93;;
52956;SDS011;38819;42.692;23.342;2023-06-22T06:03:04;16.33;;;10.50;;
52956;SDS011;38819;42.692;23.342;2023-06-22T06:05:30;18.45;;;11.13;;
52956;SDS011;38819;42.692;23.342;2023-06-22T06:07:56;15.45;;;10.55;;
52956;SDS011;38819;42.692;23.342;2023-06-22T06:10:23;11.32;;;10.10;;
52956;SDS011;38819;42.692;23.342;2023-06-22T06:12:48;11.43;;;9.90;;
52956;SDS011;38819;42.692;23.342;2023-06-22T06:15:13;22.60;;;10.57;;
52956;SDS011;38819;42.692;23.342;2023-06-22T06:17:49;21.98;;;10.18;;
52956;SDS011;38819;42.692;23.342;2023-06-22T06:20:17;15.23;;;11.13;;
52956;SDS011;38819;42.692;23.342;2023-06-22T06:22:44;15.88;;;12.40;;
52956;SDS011;38819;42.692;23.342;2023-06-22T06:25:09;19.08;;;12.60;;
52956;SDS011;38819;42.692;23.342;2023-06-22T06:27:35;24.38;;;12.75;;
52956;SDS011;38819;42.692;23.342;2023-06-22T06:30:00;14.82;;;12.32;;
52956;SDS011;38819;42.692;23.342;2023-06-22T06:32:26;20.98;;;12.45;;
52956;SDS011;38819;42.692;23.342;2023-06-22T06:34:52;22.35;;;11.25;;
52956;SDS011;38819;42.692;23.342;2023-06-22T06:37:17;15.25;;;10.73;;
52956;SDS011;38819;42.692;23.342;2023-06-22T06:39:43;17.73;;;12.23;;
52956;SDS011;38819;42.692;23.342;2023-06-22T06:42:09;18.35;;;11.23;;
52956;SDS011;38819;42.692;23.342;2023-06-22T06:44:36;17.65;;;13.25;;
52956;SDS011;38819;42.692;23.342;2023-06-22T06:47:02;19.10;;;13.10;;
52956;SDS011;38819;42.692;23.342;2023-06-22T06:49:28;18.63;;;12.02;;
52956;SDS011;38819;42.692;23.342;2023-06-22T06:51:54;18.40;;;11.40;;
52956;SDS011;38819;42.692;23.342;2023-06-22T06:54:20;16.48;;;10.93;;
52956;SDS011;38819;42.692;23.342;2023-06-22T06:56:46;17.58;;;11.13;;
52956;SDS011;38819;42.692;23.342;2023-06-22T06:59:15;16.27;;;10.77;;
52956;SDS011;38819;42.692;23.342;2023-06-22T07:01:41;15.95;;;10.95;;
52956;SDS011;38819;42.692;23.342;2023-06-22T07:04:09;17.83;;;11.27;;
52956;SDS011;38819;42.692;23.342;2023-06-22T07:06:35;13.73;;;11.43;;
52956;SDS011;38819;42.692;23.342;2023-06-22T07:09:00;12.57;;;10.77;;
52956;SDS011;38819;42.692;23.342;2023-06-22T07:11:26;20.73;;;11.55;;
52956;SDS011;38819;42.692;23.342;2023-06-22T07:13:51;16.08;;;10.40;;
52956;SDS011;38819;42.692;23.342;2023-06-22T07:16:17;19.88;;;11.32;;
52956;SDS011;38819;42.692;23.342;2023-06-22T07:18:43;15.13;;;10.13;;
52956;SDS011;38819;42.692;23.342;2023-06-22T07:21:08;23.80;;;11.00;;
52956;SDS011;38819;42.692;23.342;2023-06-22T07:23:34;19.23;;;9.82;;
52956;SDS011;38819;42.692;23.342;2023-06-22T07:26:00;13.90;;;10.57;;
52956;SDS011;38819;42.692;23.342;2023-06-22T07:28:31;15.15;;;10.07;;
52956;SDS011;38819;42.692;23.342;2023-06-22T07:31:01;15.50;;;10.52;;
52956;SDS011;38819;42.692;23.342;2023-06-22T07:33:28;13.40;;;10.65;;
52956;SDS011;38819;42.692;23.342;2023-06-22T07:35:53;22.58;;;10.10;;
52956;SDS011;38819;42.692;23.342;2023-06-22T07:38:18;17.23;;;10.88;;
52956;SDS011;38819;42.692;23.342;2023-06-22T07:40:44;16.33;;;10.25;;
52956;SDS011;38819;42.692;23.342;2023-06-22T07:43:09;16.35;;;10.35;;
52956;SDS011;38819;42.692;23.342;2023-06-22T07:45:35;12.48;;;10.55;;
52956;SDS011;38819;42.692;23.342;2023-06-22T07:48:00;19.95;;;10.70;;
52956;SDS011;38819;42.692;23.342;2023-06-22T07:50:26;15.05;;;10.40;;
52956;SDS011;38819;42.692;23.342;2023-06-22T07:52:52;18.20;;;10.70;;
52956;SDS011;38819;42.692;23.342;2023-06-22T07:55:18;15.38;;;11.23;;
52956;SDS011;38819;42.692;23.342;2023-06-22T07:57:43;14.18;;;9.93;;
52956;SDS011;38819;42.692;23.342;2023-06-22T08:00:09;20.50;;;10.52;;
52956;SDS011;38819;42.692;23.342;2023-06-22T08:02:40;17.52;;;11.07;;
52956;SDS011;38819;42.692;23.342;2023-06-22T08:05:06;16.55;;;10.85;;
52956;SDS011;38819;42.692;23.342;2023-06-22T08:07:33;15.90;;;11.23;;
52956;SDS011;38819;42.692;23.342;2023-06-22T08:10:02;22.73;;;11.77;;
52956;SDS011;38819;42.692;23.342;2023-06-22T08:12:27;24.02;;;11.55;;
52956;SDS011;38819;42.692;23.342;2023-06-22T08:14:53;19.75;;;12.40;;
52956;SDS011;38819;42.692;23.342;2023-06-22T08:17:18;20.13;;;11.07;;
52956;SDS011;38819;42.692;23.342;2023-06-22T08:19:43;19.85;;;11.15;;
52956;SDS011;38819;42.692;23.342;2023-06-22T08:22:09;19.38;;;11.02;;
52956;SDS011;38819;42.692;23.342;2023-06-22T08:24:34;15.75;;;10.57;;
52956;SDS011;38819;42.692;23.342;2023-06-22T08:26:59;15.85;;;10.05;;
52956;SDS011;38819;42.692;23.342;2023-06-22T08:29:25;13.65;;;10.07;;
52956;SDS011;38819;42.692;23.342;2023-06-22T08:31:50;16.85;;;10.95;;
52956;SDS011;38819;42.692;23.342;2023-06-22T08:34:16;16.52;;;11.40;;
52956;SDS011;38819;42.692;23.342;2023-06-22T08:36:43;18.98;;;10.73;;
52956;SDS011;38819;42.692;23.342;2023-06-22T08:39:10;18.80;;;9.80;;
52956;SDS011;38819;42.692;23.342;2023-06-22T08:41:35;12.45;;;9.73;;
52956;SDS011;38819;42.692;23.342;2023-06-22T08:44:01;15.30;;;9.55;;
52956;SDS011;38819;42.692;23.342;2023-06-22T08:46:26;15.98;;;9.77;;
52956;SDS011;38819;42.692;23.342;2023-06-22T08:48:55;17.48;;;10.93;;
52956;SDS011;38819;42.692;23.342;2023-06-22T08:51:22;17.27;;;10.35;;
52956;SDS011;38819;42.692;23.342;2023-06-22T08:53:48;15.77;;;10.45;;
52956;SDS011;38819;42.692;23.342;2023-06-22T08:56:14;10.65;;;9.65;;
52956;SDS011;38819;42.692;23.342;2023-06-22T08:58:39;13.13;;;10.23;;
52956;SDS011;38819;42.692;23.342;2023-06-22T09:01:05;14.38;;;9.65;;
52956;SDS011;38819;42.692;23.342;2023-06-22T09:03:30;15.52;;;10.02;;
52956;SDS011;38819;42.692;23.342;2023-06-22T09:08:22;14.47;;;10.47;;
52956;SDS011;38819;42.692;23.342;2023-06-22T09:10:48;12.70;;;9.82;;
52956;SDS011;38819;42.692;23.342;2023-06-22T09:13:13;10.30;;;9.25;;
52956;SDS011;38819;42.692;23.342;2023-06-22T09:15:39;14.25;;;8.57;;
52956;SDS011;38819;42.692;23.342;2023-06-22T09:18:05;10.43;;;9.25;;
52956;SDS011;38819;42.692;23.342;2023-06-22T09:20:31;12.07;;;9.93;;
52956;SDS011;38819;42.692;23.342;2023-06-22T09:22:56;15.25;;;9.45;;
52956;SDS011;38819;42.692;23.342;2023-06-22T09:25:23;12.85;;;9.90;;
52956;SDS011;38819;42.692;23.342;2023-06-22T09:27:48;11.88;;;10.77;;
52956;SDS011;38819;42.692;23.342;2023-06-22T09:30:13;12.35;;;9.40;;
52956;SDS011;38819;42.692;23.342;2023-06-22T09:32:39;10.63;;;9.05;;
52956;SDS011;38819;42.692;23.342;2023-06-22T09:35:05;10.68;;;8.68;;
52956;SDS011;38819;42.692;23.342;2023-06-22T09:37:31;13.07;;;9.23;;
52956;SDS011;38819;42.692;23.342;2023-06-22T09:39:57;9.27;;;8.38;;
52956;SDS011;38819;42.692;23.342;2023-06-22T09:42:22;9.27;;;8.32;;
52956;SDS011;38819;42.692;23.342;2023-06-22T09:44:48;13.80;;;8.98;;
52956;SDS011;38819;42.692;23.342;2023-06-22T09:47:13;10.93;;;9.10;;
52956;SDS011;38819;42.692;23.342;2023-06-22T09:49:38;11.63;;;9.23;;
52956;SDS011;38819;42.692;23.342;2023-06-22T09:52:04;9.25;;;8.27;;
52956;SDS011;38819;42.692;23.342;2023-06-22T09:54:30;14.80;;;8.38;;
52956;SDS011;38819;42.692;23.342;2023-06-22T09:56:56;9.55;;;7.95;;
52956;SDS011;38819;42.692;23.342;2023-06-22T09:59:21;14.23;;;8.32;;
52956;SDS011;38819;42.692;23.342;2023-06-22T10:01:47;9.75;;;8.30;;
52956;SDS011;38819;42.692;23.342;2023-06-22T10:04:12;8.75;;;7.40;;
52956;SDS011;38819;42.692;23.342;2023-06-22T10:06:37;8.95;;;7.78;;
52956;SDS011;38819;42.692;23.342;2023-06-22T10:09:05;8.52;;;7.10;;
52956;SDS011;38819;42.692;23.342;2023-06-22T10:11:31;9.35;;;7.10;;
52956;SDS011;38819;42.692;23.342;2023-06-22T10:13:59;7.72;;;7.03;;
52956;SDS011;38819;42.692;23.342;2023-06-22T10:16:30;8.57;;;7.38;;
52956;SDS011;38819;42.692;23.342;2023-06-22T10:18:56;11.73;;;7.53;;
52956;SDS011;38819;42.692;23.342;2023-06-22T10:21:21;9.50;;;7.57;;
52956;SDS011;38819;42.692;23.342;2023-06-22T10:23:47;9.52;;;7.90;;
52956;SDS011;38819;42.692;23.342;2023-06-22T10:26:12;8.18;;;7.25;;
52956;SDS011;38819;42.692;23.342;2023-06-22T10:28:38;10.18;;;8.93;;
52956;SDS011;38819;42.692;23.342;2023-06-22T10:31:03;9.57;;;7.72;;
52956;SDS011;38819;42.692;23.342;2023-06-22T10:33:29;8.65;;;7.70;;
52956;SDS011;38819;42.692;23.342;2023-06-22T10:35:54;8.50;;;7.63;;
52956;SDS011;38819;42.692;23.342;2023-06-22T10:38:20;9.38;;;8.02;;
52956;SDS011;38819;42.692;23.342;2023-06-22T10:40:46;9.60;;;7.43;;
52956;SDS011;38819;42.692;23.342;2023-06-22T10:43:11;9.75;;;8.48;;
52956;SDS011;38819;42.692;23.342;2023-06-22T10:45:37;12.23;;;8.20;;
52956;SDS011;38819;42.692;23.342;2023-06-22T10:48:02;9.30;;;7.70;;
52956;SDS011;38819;42.692;23.342;2023-06-22T10:50:28;7.18;;;6.57;;
52956;SDS011;38819;42.692;23.342;2023-06-22T10:52:54;8.80;;;7.50;;
52956;SDS011;38819;42.692;23.342;2023-06-22T10:55:19;9.45;;;7.68;;
52956;SDS011;38819;42.692;23.342;2023-06-22T10:57:45;12.35;;;8.20;;
52956;SDS011;38819;42.692;23.342;2023-06-22T11:00:13;7.88;;;7.10;;
52956;SDS011;38819;42.692;23.342;2023-06-22T11:02:39;9.05;;;7.32;;
52956;SDS011;38819;42.692;23.342;2023-06-22T11:05:05;9.43;;;8.50;;
52956;SDS011;38819;42.692;23.342;2023-06-22T11:07:30;11.80;;;7.72;;
52956;SDS011;38819;42.692;23.342;2023-06-22T11:09:56;9.50;;;7.43;;
52956;SDS011;38819;42.692;23.342;2023-06-22T11:12:21;9.38;;;7.82;;
52956;SDS011;38819;42.692;23.342;2023-06-22T11:14:47;10.85;;;7.10;;
52956;SDS011;38819;42.692;23.342;2023-06-22T11:17:15;12.05;;;7.53;;
52956;SDS011;38819;42.692;23.342;2023-06-22T11:19:40;8.68;;;7.80;;
52956;SDS011;38819;42.692;23.342;2023-06-22T11:22:06;8.73;;;7.88;;
52956;SDS011;38819;42.692;23.342;2023-06-22T11:24:31;8.23;;;7.43;;
52956;SDS011;38819;42.692;23.342;2023-06-22T11:26:57;7.45;;;6.72;;
52956;SDS011;38819;42.692;23.342;2023-06-22T11:29:23;10.43;;;7.45;;
52956;SDS011;38819;42.692;23.342;2023-06-22T11:31:48;7.80;;;6.97;;
52956;SDS011;38819;42.692;23.342;2023-06-22T11:34:13;7.50;;;6.80;;
52956;SDS011;38819;42.692;23.342;2023-06-22T11:36:39;11.40;;;7.65;;
52956;SDS011;38819;42.692;23.342;2023-06-22T11:39:05;10.15;;;7.00;;
52956;SDS011;38819;42.692;23.342;2023-06-22T11:41:30;9.15;;;7.20;;
52956;SDS011;38819;42.692;23.342;2023-06-22T11:43:56;6.88;;;6.28;;
52956;SDS011;38819;42.692;23.342;2023-06-22T11:46:21;8.02;;;6.82;;
52956;SDS011;38819;42.692;23.342;2023-06-22T11:48:47;8.13;;;6.97;;
52956;SDS011;38819;42.692;23.342;2023-06-22T11:51:12;12.48;;;6.05;;
52956;SDS011;38819;42.692;23.342;2023-06-22T11:53:39;9.75;;;6.82;;
52956;SDS011;38819;42.692;23.342;2023-06-22T11:56:04;7.32;;;6.65;;
52956;SDS011;38819;42.692;23.342;2023-06-22T11:58:30;6.53;;;6.03;;
52956;SDS011;38819;42.692;23.342;2023-06-22T12:00:55;7.57;;;6.03;;
52956;SDS011;38819;42.692;23.342;2023-06-22T12:03:21;9.43;;;6.20;;
52956;SDS011;38819;42.692;23.342;2023-06-22T12:05:46;13.05;;;6.78;;
52956;SDS011;38819;42.692;23.342;2023-06-22T12:08:12;53.33;;;12.90;;
52956;SDS011;38819;42.692;23.342;2023-06-22T12:10:38;12.52;;;7.18;;
52956;SDS011;38819;42.692;23.342;2023-06-22T12:13:04;7.32;;;6.70;;
52956;SDS011;38819;42.692;23.342;2023-06-22T12:15:29;14.60;;;6.57;;
52956;SDS011;38819;42.692;23.342;2023-06-22T12:17:55;9.23;;;6.78;;
52956;SDS011;38819;42.692;23.342;2023-06-22T12:20:20;8.05;;;7.25;;
52956;SDS011;38819;42.692;23.342;2023-06-22T12:22:46;9.95;;;6.90;;
52956;SDS011;38819;42.692;23.342;2023-06-22T12:25:12;7.33;;;6.63;;
52956;SDS011;38819;42.692;23.342;2023-06-22T12:27:38;7.88;;;7.10;;
52956;SDS011;38819;42.692;23.342;2023-06-22T12:30:03;11.07;;;7.43;;
52956;SDS011;38819;42.692;23.342;2023-06-22T12:32:29;9.43;;;7.87;;
52956;SDS011;38819;42.692;23.342;2023-06-22T12:34:55;16.17;;;8.95;;
52956;SDS011;38819;42.692;23.342;2023-06-22T12:37:21;11.40;;;7.50;;
52956;SDS011;38819;42.692;23.342;2023-06-22T12:39:47;8.57;;;7.72;;
52956;SDS011;38819;42.692;23.342;2023-06-22T12:42:12;10.57;;;7.60;;
52956;SDS011;38819;42.692;23.342;2023-06-22T12:44:38;10.88;;;8.43;;
52956;SDS011;38819;42.692;23.342;2023-06-22T12:47:05;9.82;;;7.68;;
52956;SDS011;38819;42.692;23.342;2023-06-22T12:49:31;10.67;;;7.70;;
52956;SDS011;38819;42.692;23.342;2023-06-22T12:51:56;10.82;;;7.63;;
52956;SDS011;38819;42.692;23.342;2023-06-22T12:54:21;10.57;;;6.82;;
52956;SDS011;38819;42.692;23.342;2023-06-22T12:56:47;12.73;;;7.82;;
52956;SDS011;38819;42.692;23.342;2023-06-22T12:59:12;12.23;;;7.45;;
52956;SDS011;38819;42.692;23.342;2023-06-22T13:01:38;11.80;;;7.43;;
52956;SDS011;38819;42.692;23.342;2023-06-22T13:04:03;12.60;;;7.50;;
52956;SDS011;38819;42.692;23.342;2023-06-22T13:06:29;14.07;;;7.95;;
52956;SDS011;38819;42.692;23.342;2023-06-22T13:08:55;18.85;;;8.68;;
52956;SDS011;38819;42.692;23.342;2023-06-22T13:11:21;21.07;;;11.63;;
52956;SDS011;38819;42.692;23.342;2023-06-22T13:13:46;19.25;;;9.88;;
52956;SDS011;38819;42.692;23.342;2023-06-22T13:16:12;17.77;;;9.00;;
52956;SDS011;38819;42.692;23.342;2023-06-22T13:18:38;13.25;;;8.10;;
52956;SDS011;38819;42.692;23.342;2023-06-22T13:21:03;12.75;;;9.10;;
52956;SDS011;38819;42.692;23.342;2023-06-22T13:23:29;15.40;;;8.45;;
52956;SDS011;38819;42.692;23.342;2023-06-22T13:25:55;10.98;;;8.60;;
52956;SDS011;38819;42.692;23.342;2023-06-22T13:28:20;14.45;;;9.50;;
52956;SDS011;38819;42.692;23.342;2023-06-22T13:30:46;22.17;;;9.57;;
52956;SDS011;38819;42.692;23.342;2023-06-22T13:33:15;15.75;;;10.45;;
52956;SDS011;38819;42.692;23.342;2023-06-22T13:35:42;22.85;;;10.18;;
52956;SDS011;38819;42.692;23.342;2023-06-22T13:38:07;16.13;;;10.00;;
52956;SDS011;38819;42.692;23.342;2023-06-22T13:40:34;21.87;;;10.33;;
52956;SDS011;38819;42.692;23.342;2023-06-22T13:42:59;15.25;;;10.40;;
52956;SDS011;38819;42.692;23.342;2023-06-22T13:45:25;15.95;;;10.35;;
52956;SDS011;38819;42.692;23.342;2023-06-22T13:47:51;21.70;;;10.90;;
52956;SDS011;38819;42.692;23.342;2023-06-22T13:50:16;17.48;;;9.73;;
52956;SDS011;38819;42.692;23.342;2023-06-22T13:52:42;13.93;;;10.43;;
52956;SDS011;38819;42.692;23.342;2023-06-22T13:55:08;25.60;;;9.55;;
52956;SDS011;38819;42.692;23.342;2023-06-22T13:57:34;19.40;;;9.73;;
52956;SDS011;38819;42.692;23.342;2023-06-22T14:00:00;14.70;;;9.13;;
52956;SDS011;38819;42.692;23.342;2023-06-22T14:02:26;25.10;;;9.95;;
52956;SDS011;38819;42.692;23.342;2023-06-22T14:04:51;15.57;;;9.30;;
52956;SDS011;38819;42.692;23.342;2023-06-22T14:07:17;16.25;;;9.82;;
52956;SDS011;38819;42.692;23.342;2023-06-22T14:12:10;12.53;;;9.37;;
52956;SDS011;38819;42.692;23.342;2023-06-22T14:14:35;14.40;;;9.00;;
52956;SDS011;38819;42.692;23.342;2023-06-22T14:17:01;21.02;;;10.15;;
52956;SDS011;38819;42.692;23.342;2023-06-22T14:19:26;17.77;;;10.43;;
52956;SDS011;38819;42.692;23.342;2023-06-22T14:21:52;19.95;;;10.45;;
52956;SDS011;38819;42.692;23.342;2023-06-22T14:24:17;23.30;;;10.07;;
52956;SDS011;38819;42.692;23.342;2023-06-22T14:26:43;17.80;;;10.82;;
52956;SDS011;38819;42.692;23.342;2023-06-22T14:29:08;17.20;;;10.82;;
52956;SDS011;38819;42.692;23.342;2023-06-22T14:31:33;13.70;;;10.48;;
52956;SDS011;38819;42.692;23.342;2023-06-22T14:33:59;13.75;;;9.98;;